Time;durP1;ratioP1;P1;durP2;ratioP2;P2;SDS_P1;SDS_P2;PMS_P1;PMS_P2;Temp;Humidity;BMP_temperature;BMP_pressure;BME280_temperature;BME280_humidity;BME280_pressure;Samples;Min_cycle;Max_cycle;Signal;HPM_P1;HPM_P2
2021/07/02 00:00:07;;;;;;;27.77;10.50;;;;;;;;;;5021090;28;20236;-67
2021/07/02 00:02:32;;;;;;;29.27;10.60;;;;;;;;;;5008667;28;20217;-67
2021/07/02 00:04:57;;;;;;;29.63;10.60;;;;;;;;;;5018146;28;20201;-69
2021/07/02 00:07:23;;;;;;;28.75;10.88;;;;;;;;;;5012425;28;20214;-67
2021/07/02 00:09:48;;;;;;;27.60;10.98;;;;;;;;;;5021923;28;20186;-67
2021/07/02 00:12:13;;;;;;;28.33;10.70;;;;;;;;;;5013749;28;20240;-67
2021/07/02 00:14:39;;;;;;;30.33;11.63;;;;;;;;;;5017493;28;20646;-67
2021/07/02 00:17:04;;;;;;;34.75;10.82;;;;;;;;;;5010073;28;20178;-68
2021/07/02 00:19:32;;;;;;;22.75;10.75;;;;;;;;;;5021764;28;20298;-68
2021/07/02 00:21:57;;;;;;;28.33;11.40;;;;;;;;;;5010099;28;20190;-68
2021/07/02 00:24:22;;;;;;;28.00;10.70;;;;;;;;;;5018474;28;20183;-68
2021/07/02 00:26:48;;;;;;;32.30;12.13;;;;;;;;;;5024328;28;20538;-72
2021/07/02 00:29:13;;;;;;;28.55;10.90;;;;;;;;;;5012962;28;20195;-67
2021/07/02 00:31:38;;;;;;;27.58;11.30;;;;;;;;;;5017958;28;20201;-67
2021/07/02 00:34:04;;;;;;;30.08;10.93;;;;;;;;;;5014019;28;20714;-68
2021/07/02 00:36:29;;;;;;;21.85;11.00;;;;;;;;;;5020541;28;20232;-67
2021/07/02 00:38:54;;;;;;;23.65;9.95;;;;;;;;;;5011740;28;20218;-67
2021/07/02 00:41:20;;;;;;;23.20;10.73;;;;;;;;;;5016167;28;20599;-68
2021/07/02 00:43:50;;;;;;;24.52;10.80;;;;;;;;;;5011643;28;20239;-67
2021/07/02 00:46:15;;;;;;;25.65;10.65;;;;;;;;;;5020093;28;20226;-67
2021/07/02 00:48:40;;;;;;;20.38;10.10;;;;;;;;;;5014785;28;20212;-68
2021/07/02 00:51:06;;;;;;;23.02;10.02;;;;;;;;;;5022049;28;20190;-68
2021/07/02 00:53:31;;;;;;;22.33;10.45;;;;;;;;;;5017754;28;22031;-68
2021/07/02 00:55:57;;;;;;;28.92;11.05;;;;;;;;;;5021165;28;20669;-68
2021/07/02 00:58:24;;;;;;;30.55;11.93;;;;;;;;;;5024087;28;20625;-68
2021/07/02 01:00:50;;;;;;;30.30;10.73;;;;;;;;;;5016704;28;20267;-67
2021/07/02 01:03:15;;;;;;;26.27;9.88;;;;;;;;;;5021267;28;20713;-67
2021/07/02 01:05:43;;;;;;;24.25;10.30;;;;;;;;;;5016406;28;20197;-68
2021/07/02 01:08:08;;;;;;;22.98;10.52;;;;;;;;;;5020445;28;20562;-68
2021/07/02 01:10:34;;;;;;;26.33;11.07;;;;;;;;;;5016492;28;20186;-67
2021/07/02 01:12:59;;;;;;;31.73;10.60;;;;;;;;;;5022990;28;20185;-68
2021/07/02 01:15:26;;;;;;;30.27;12.25;;;;;;;;;;5012710;28;20428;-67
2021/07/02 01:17:52;;;;;;;27.08;11.23;;;;;;;;;;5020925;28;20197;-67
2021/07/02 01:20:20;;;;;;;24.33;10.07;;;;;;;;;;5007663;28;20339;-67
2021/07/02 01:22:46;;;;;;;24.85;10.40;;;;;;;;;;5025987;28;20214;-67
2021/07/02 01:25:11;;;;;;;29.45;11.18;;;;;;;;;;5013867;28;20271;-68
2021/07/02 01:27:37;;;;;;;37.58;11.90;;;;;;;;;;5023032;28;20209;-68
2021/07/02 01:30:05;;;;;;;30.30;12.80;;;;;;;;;;5024064;28;20308;-68
2021/07/02 01:32:31;;;;;;;32.40;12.57;;;;;;;;;;5015719;28;20196;-68
2021/07/02 01:34:56;;;;;;;33.97;13.13;;;;;;;;;;5023927;28;20186;-67
2021/07/02 01:37:21;;;;;;;28.85;12.73;;;;;;;;;;5016875;28;20732;-68
2021/07/02 01:39:47;;;;;;;24.63;12.88;;;;;;;;;;5020867;28;20198;-68
2021/07/02 01:42:12;;;;;;;30.77;13.10;;;;;;;;;;5010150;28;20275;-67
2021/07/02 01:44:41;;;;;;;35.33;13.02;;;;;;;;;;5023705;28;20612;-68
2021/07/02 01:47:07;;;;;;;30.40;12.68;;;;;;;;;;5007534;28;20309;-68
2021/07/02 01:49:32;;;;;;;26.73;12.18;;;;;;;;;;5018145;28;20345;-68
2021/07/02 01:51:58;;;;;;;29.02;12.73;;;;;;;;;;5014205;28;20194;-68
2021/07/02 01:54:23;;;;;;;25.92;12.30;;;;;;;;;;5019110;28;20271;-68
2021/07/02 01:56:49;;;;;;;28.60;13.00;;;;;;;;;;5012197;28;20179;-68
2021/07/02 01:59:16;;;;;;;26.45;12.48;;;;;;;;;;5020807;28;20277;-68
2021/07/02 02:01:43;;;;;;;30.95;12.43;;;;;;;;;;5019074;28;20194;-68
2021/07/02 02:04:09;;;;;;;28.63;12.45;;;;;;;;;;5015163;28;20189;-68
2021/07/02 02:06:34;;;;;;;30.33;12.75;;;;;;;;;;5023831;28;20489;-68
2021/07/02 02:09:00;;;;;;;25.00;12.45;;;;;;;;;;5008113;28;20196;-68
2021/07/02 02:11:25;;;;;;;31.55;12.70;;;;;;;;;;5019072;28;20194;-68
2021/07/02 02:13:50;;;;;;;25.27;12.20;;;;;;;;;;5007001;28;20218;-68
2021/07/02 02:16:16;;;;;;;25.88;12.23;;;;;;;;;;5023792;28;20182;-68
2021/07/02 02:18:41;;;;;;;29.15;13.23;;;;;;;;;;5010741;28;20537;-68
2021/07/02 02:21:06;;;;;;;26.90;12.45;;;;;;;;;;5014574;28;20233;-68
2021/07/02 02:23:32;;;;;;;34.28;13.38;;;;;;;;;;5012313;28;20209;-68
2021/07/02 02:25:57;;;;;;;29.17;12.85;;;;;;;;;;5021409;28;20205;-68
2021/07/02 02:28:22;;;;;;;32.92;13.50;;;;;;;;;;5015048;28;20225;-68
2021/07/02 02:30:48;;;;;;;31.42;13.80;;;;;;;;;;5023634;28;20178;-68
2021/07/02 02:33:13;;;;;;;27.38;13.43;;;;;;;;;;5019542;28;20219;-68
2021/07/02 02:35:38;;;;;;;31.50;14.63;;;;;;;;;;5015395;28;20236;-68
2021/07/02 02:38:04;;;;;;;28.30;13.23;;;;;;;;;;5021262;28;20248;-68
2021/07/02 02:40:29;;;;;;;32.63;14.95;;;;;;;;;;5012957;28;20264;-68
2021/07/02 02:42:55;;;;;;;36.42;15.60;;;;;;;;;;5021475;28;20178;-68
2021/07/02 02:45:20;;;;;;;36.40;16.25;;;;;;;;;;5013127;28;20187;-68
2021/07/02 02:47:45;;;;;;;30.23;15.90;;;;;;;;;;5021321;28;20241;-68
2021/07/02 02:50:11;;;;;;;31.67;16.75;;;;;;;;;;5020872;28;20193;-68
2021/07/02 02:52:36;;;;;;;31.25;15.88;;;;;;;;;;5028585;28;20190;-68
2021/07/02 02:55:02;;;;;;;35.42;17.92;;;;;;;;;;5017971;28;20635;-68
2021/07/02 02:57:27;;;;;;;40.85;17.70;;;;;;;;;;5025161;28;20178;-68
2021/07/02 02:59:52;;;;;;;34.88;16.77;;;;;;;;;;5024260;28;20209;-68
2021/07/02 03:02:18;;;;;;;34.88;17.17;;;;;;;;;;5023371;28;20183;-68
2021/07/02 03:04:43;;;;;;;27.08;15.15;;;;;;;;;;5027029;28;20600;-68
2021/07/02 03:07:09;;;;;;;36.00;17.40;;;;;;;;;;5017087;28;20292;-68
2021/07/02 03:09:35;;;;;;;32.65;16.90;;;;;;;;;;5032041;28;20637;-68
2021/07/02 03:12:01;;;;;;;38.53;17.88;;;;;;;;;;4999827;28;20615;-68
2021/07/02 03:14:26;;;;;;;30.27;17.88;;;;;;;;;;5027397;28;20201;-68
2021/07/02 03:16:52;;;;;;;32.42;17.83;;;;;;;;;;4999323;28;20558;-69
2021/07/02 03:19:18;;;;;;;35.55;18.70;;;;;;;;;;5027741;28;20182;-68
2021/07/02 03:21:44;;;;;;;39.05;19.33;;;;;;;;;;5015694;28;20657;-68
2021/07/02 03:24:10;;;;;;;38.70;19.33;;;;;;;;;;5022870;28;20666;-68
2021/07/02 03:26:36;;;;;;;30.98;17.50;;;;;;;;;;5012816;28;20214;-68
2021/07/02 03:29:02;;;;;;;36.85;18.65;;;;;;;;;;5026555;28;20174;-68
2021/07/02 03:31:28;;;;;;;42.00;18.92;;;;;;;;;;5016232;28;20186;-68
2021/07/02 03:33:53;;;;;;;41.92;19.20;;;;;;;;;;5027699;28;20652;-68
2021/07/02 03:36:19;;;;;;;40.03;20.58;;;;;;;;;;5025058;28;20514;-68
2021/07/02 03:38:44;;;;;;;37.50;19.65;;;;;;;;;;5017785;28;20225;-68
2021/07/02 03:41:09;;;;;;;37.20;19.45;;;;;;;;;;5023333;28;20185;-68
2021/07/02 03:43:35;;;;;;;38.15;19.02;;;;;;;;;;5018407;28;20293;-68
2021/07/02 03:46:00;;;;;;;39.80;19.70;;;;;;;;;;5022205;28;20751;-68
2021/07/02 03:48:26;;;;;;;38.72;19.45;;;;;;;;;;5011926;28;20189;-68
2021/07/02 03:50:51;;;;;;;33.97;17.90;;;;;;;;;;5016909;28;20239;-68
2021/07/02 03:53:17;;;;;;;38.50;19.63;;;;;;;;;;5005602;28;20561;-68
2021/07/02 03:55:42;;;;;;;37.83;19.40;;;;;;;;;;5021447;28;20273;-68
2021/07/02 03:58:07;;;;;;;35.33;19.83;;;;;;;;;;5012817;28;20199;-68
2021/07/02 04:00:33;;;;;;;36.60;18.88;;;;;;;;;;5022130;28;20213;-68
2021/07/02 04:02:58;;;;;;;32.85;19.40;;;;;;;;;;5017670;28;20183;-68
2021/07/02 04:05:23;;;;;;;39.13;20.65;;;;;;;;;;5015634;28;20198;-68
2021/07/02 04:07:49;;;;;;;43.25;20.90;;;;;;;;;;5023718;28;20209;-68
2021/07/02 04:10:14;;;;;;;36.60;19.33;;;;;;;;;;5010275;28;20673;-68
2021/07/02 04:12:40;;;;;;;31.73;18.70;;;;;;;;;;5021430;28;20190;-67
2021/07/02 04:15:06;;;;;;;34.17;19.45;;;;;;;;;;5012322;28;20285;-68
2021/07/02 04:17:32;;;;;;;39.03;19.77;;;;;;;;;;5021785;28;20278;-68
2021/07/02 04:19:57;;;;;;;33.08;18.38;;;;;;;;;;5010780;28;20664;-68
2021/07/02 04:22:23;;;;;;;41.47;19.73;;;;;;;;;;5019056;28;20194;-68
2021/07/02 04:24:49;;;;;;;29.88;18.55;;;;;;;;;;5010290;28;20281;-68
2021/07/02 04:27:15;;;;;;;36.40;18.63;;;;;;;;;;5020653;28;20257;-68
2021/07/02 04:29:41;;;;;;;30.92;17.35;;;;;;;;;;5010784;28;20210;-69
2021/07/02 04:32:07;;;;;;;34.00;17.38;;;;;;;;;;5022238;28;20276;-69
2021/07/02 04:34:32;;;;;;;39.75;19.33;;;;;;;;;;5016904;28;20786;-68
2021/07/02 04:36:57;;;;;;;33.78;18.08;;;;;;;;;;5019424;28;20217;-68
2021/07/02 04:39:23;;;;;;;35.60;20.15;;;;;;;;;;5019420;28;20209;-68
2021/07/02 04:41:48;;;;;;;41.08;20.45;;;;;;;;;;5010930;28;20225;-68
2021/07/02 04:44:13;;;;;;;34.10;20.48;;;;;;;;;;5018801;28;20218;-68
2021/07/02 04:46:39;;;;;;;32.90;18.92;;;;;;;;;;5006810;28;20632;-68
2021/07/02 04:49:04;;;;;;;33.63;19.55;;;;;;;;;;5018132;28;20642;-68
2021/07/02 04:51:30;;;;;;;36.55;19.92;;;;;;;;;;5010605;28;20218;-68
2021/07/02 04:53:55;;;;;;;35.13;17.45;;;;;;;;;;5019163;28;20194;-68
2021/07/02 04:56:20;;;;;;;34.58;18.48;;;;;;;;;;5014172;28;20185;-68
2021/07/02 04:58:51;;;;;;;31.45;19.50;;;;;;;;;;5019092;28;20551;-68
2021/07/02 05:01:17;;;;;;;31.05;17.83;;;;;;;;;;5013599;28;20289;-69
2021/07/02 05:03:42;;;;;;;35.17;18.42;;;;;;;;;;5021245;28;20277;-68
2021/07/02 05:06:08;;;;;;;35.05;19.45;;;;;;;;;;5022273;28;20244;-68
2021/07/02 05:08:33;;;;;;;36.70;18.52;;;;;;;;;;5011225;28;20623;-68
2021/07/02 05:10:59;;;;;;;34.30;18.30;;;;;;;;;;5015651;28;20196;-68
2021/07/02 05:13:24;;;;;;;39.13;19.05;;;;;;;;;;5009645;28;20239;-68
2021/07/02 05:15:50;;;;;;;32.78;18.17;;;;;;;;;;5024896;28;20236;-68
2021/07/02 05:18:16;;;;;;;29.35;17.63;;;;;;;;;;5008357;28;20190;-68
2021/07/02 05:20:44;;;;;;;33.25;18.40;;;;;;;;;;5018865;28;20244;-68
2021/07/02 05:23:10;;;;;;;30.77;17.92;;;;;;;;;;5009940;28;20248;-67
2021/07/02 05:25:36;;;;;;;35.17;17.63;;;;;;;;;;5022767;28;20178;-68
2021/07/02 05:28:02;;;;;;;29.77;17.27;;;;;;;;;;5011491;28;20669;-67
2021/07/02 05:30:28;;;;;;;32.00;19.20;;;;;;;;;;5020459;28;20190;-68
2021/07/02 05:32:54;;;;;;;30.85;18.40;;;;;;;;;;5011499;28;20186;-68
2021/07/02 05:35:19;;;;;;;37.95;18.85;;;;;;;;;;5017907;28;20189;-68
2021/07/02 05:37:44;;;;;;;30.58;17.13;;;;;;;;;;5016033;28;20185;-68
2021/07/02 05:40:12;;;;;;;30.67;17.00;;;;;;;;;;5015222;28;20221;-68
2021/07/02 05:42:38;;;;;;;33.70;17.77;;;;;;;;;;5021286;28;20194;-68
2021/07/02 05:45:04;;;;;;;31.25;17.85;;;;;;;;;;5011913;28;20885;-68
2021/07/02 05:47:29;;;;;;;29.13;17.20;;;;;;;;;;5014122;28;20301;-68
2021/07/02 05:49:55;;;;;;;31.45;17.25;;;;;;;;;;5007017;28;20289;-68
2021/07/02 05:52:20;;;;;;;30.33;17.73;;;;;;;;;;5018291;28;20211;-68
2021/07/02 05:54:48;;;;;;;30.75;17.35;;;;;;;;;;4322915;28;10000824;-68
2021/07/02 05:57:13;;;;;;;34.53;16.95;;;;;;;;;;5022878;28;20205;-69
2021/07/02 05:59:39;;;;;;;26.42;16.20;;;;;;;;;;5009252;28;20563;-69
2021/07/02 06:02:04;;;;;;;30.30;17.00;;;;;;;;;;5018982;28;20190;-69
2021/07/02 06:04:29;;;;;;;25.98;15.73;;;;;;;;;;5015099;28;20183;-68
2021/07/02 06:06:55;;;;;;;26.88;15.13;;;;;;;;;;5016886;28;20591;-69
2021/07/02 06:09:20;;;;;;;28.13;15.98;;;;;;;;;;5022899;28;20194;-69
2021/07/02 06:11:45;;;;;;;27.92;15.98;;;;;;;;;;5015575;28;20650;-68
2021/07/02 06:14:11;;;;;;;30.83;15.75;;;;;;;;;;5026452;28;20246;-69
2021/07/02 06:16:36;;;;;;;24.35;15.02;;;;;;;;;;5010176;28;20317;-68
2021/07/02 06:19:01;;;;;;;27.50;15.23;;;;;;;;;;5021953;28;20227;-68
2021/07/02 06:21:28;;;;;;;30.00;15.73;;;;;;;;;;5009496;28;20194;-68
2021/07/02 06:23:53;;;;;;;26.00;14.55;;;;;;;;;;5024313;28;20201;-68
2021/07/02 06:26:18;;;;;;;26.45;13.93;;;;;;;;;;5011346;28;20206;-68
2021/07/02 06:28:44;;;;;;;25.92;15.50;;;;;;;;;;5027764;28;20284;-68
2021/07/02 06:31:09;;;;;;;24.98;14.55;;;;;;;;;;5016034;28;20269;-68
2021/07/02 06:33:35;;;;;;;22.63;13.93;;;;;;;;;;5027669;28;20270;-69
2021/07/02 06:36:00;;;;;;;27.58;14.55;;;;;;;;;;5013070;28;20811;-69
2021/07/02 06:38:26;;;;;;;24.27;14.48;;;;;;;;;;5025323;28;20179;-68
2021/07/02 06:40:52;;;;;;;72.03;21.45;;;;;;;;;;5022184;28;20185;-69
2021/07/02 06:43:17;;;;;;;37.78;15.55;;;;;;;;;;5014188;28;20688;-69
2021/07/02 06:45:43;;;;;;;32.38;15.77;;;;;;;;;;5019782;28;20261;-69
2021/07/02 06:48:09;;;;;;;25.20;14.65;;;;;;;;;;5014610;28;20260;-70
2021/07/02 06:50:36;;;;;;;25.73;14.68;;;;;;;;;;5020828;28;20195;-69
2021/07/02 06:53:04;;;;;;;22.38;14.80;;;;;;;;;;5015914;28;20194;-70
2021/07/02 06:55:31;;;;;;;20.25;13.95;;;;;;;;;;5021427;28;20197;-69
2021/07/02 06:57:56;;;;;;;29.73;14.93;;;;;;;;;;5013478;28;20194;-69
2021/07/02 07:00:23;;;;;;;24.05;14.80;;;;;;;;;;5023093;28;20210;-69
2021/07/02 07:02:49;;;;;;;25.30;16.30;;;;;;;;;;5017143;28;20212;-69
2021/07/02 07:05:16;;;;;;;26.80;14.07;;;;;;;;;;5020400;28;20248;-69
2021/07/02 07:07:44;;;;;;;23.45;14.45;;;;;;;;;;5014467;28;22754;-70
2021/07/02 07:10:10;;;;;;;26.75;13.98;;;;;;;;;;5023871;28;20225;-69
2021/07/02 07:12:36;;;;;;;21.60;13.85;;;;;;;;;;5017674;28;20221;-70
2021/07/02 07:15:02;;;;;;;23.52;13.45;;;;;;;;;;5020641;28;20712;-69
2021/07/02 07:17:28;;;;;;;26.88;13.48;;;;;;;;;;5024121;28;20186;-69
2021/07/02 07:19:54;;;;;;;20.40;13.15;;;;;;;;;;5016068;28;20263;-68
2021/07/02 07:22:19;;;;;;;18.45;12.48;;;;;;;;;;5019438;28;20197;-68
2021/07/02 07:24:45;;;;;;;22.52;13.38;;;;;;;;;;5013294;28;20187;-69
2021/07/02 07:27:11;;;;;;;23.30;13.40;;;;;;;;;;5022349;28;20222;-68
2021/07/02 07:29:37;;;;;;;23.63;13.73;;;;;;;;;;4997262;28;20182;-69
2021/07/02 07:32:02;;;;;;;20.27;12.98;;;;;;;;;;5023836;28;20190;-69
2021/07/02 07:34:44;;;;;;;21.52;12.60;;;;;;;;;;5011711;28;20593;-70
2021/07/02 07:37:15;;;;;;;23.73;13.95;;;;;;;;;;5023951;28;20198;-70
2021/07/02 07:39:40;;;;;;;22.83;13.57;;;;;;;;;;5014615;28;20186;-69
2021/07/02 07:42:05;;;;;;;17.85;11.68;;;;;;;;;;5022649;28;20205;-70
2021/07/02 07:44:31;;;;;;;23.80;14.07;;;;;;;;;;5014606;28;20638;-69
2021/07/02 07:46:56;;;;;;;20.38;13.65;;;;;;;;;;5026314;28;20257;-70
2021/07/02 07:49:23;;;;;;;21.23;14.40;;;;;;;;;;5020328;28;20189;-69
2021/07/02 07:51:58;;;;;;;17.40;13.95;;;;;;;;;;5013568;28;20194;-69
2021/07/02 07:54:23;;;;;;;23.88;14.98;;;;;;;;;;5024984;28;20196;-70
2021/07/02 07:56:51;;;;;;;21.92;14.23;;;;;;;;;;5014068;28;20182;-69
2021/07/02 07:59:21;;;;;;;23.65;13.43;;;;;;;;;;5023069;28;20183;-69
2021/07/02 08:01:47;;;;;;;25.92;15.50;;;;;;;;;;5013292;28;20210;-69
2021/07/02 08:04:14;;;;;;;26.30;15.48;;;;;;;;;;5018703;28;20317;-70
2021/07/02 08:06:47;;;;;;;25.05;15.27;;;;;;;;;;5012022;28;20221;-69
2021/07/02 08:09:13;;;;;;;23.05;14.00;;;;;;;;;;5020538;28;20551;-69
2021/07/02 08:11:40;;;;;;;25.98;14.57;;;;;;;;;;5013655;28;20178;-70
2021/07/02 08:14:07;;;;;;;26.75;14.68;;;;;;;;;;5022278;28;20305;-68
2021/07/02 08:16:32;;;;;;;21.65;14.60;;;;;;;;;;5008949;28;20189;-69
2021/07/02 08:18:58;;;;;;;23.00;14.90;;;;;;;;;;5023417;28;20182;-69
2021/07/02 08:21:24;;;;;;;23.63;15.68;;;;;;;;;;5010639;28;20532;-70
2021/07/02 08:23:49;;;;;;;31.67;16.00;;;;;;;;;;5021497;28;20185;-70
2021/07/02 08:26:14;;;;;;;24.73;16.35;;;;;;;;;;5020939;28;20213;-69
2021/07/02 08:31:24;;;;;;;24.13;15.88;;;;;;;;;;5020830;28;20201;-69
2021/07/02 08:33:50;;;;;;;22.98;16.38;;;;;;;;;;5011740;28;20183;-70
2021/07/02 08:36:15;;;;;;;22.42;16.30;;;;;;;;;;5018775;28;20185;-69
2021/07/02 08:38:41;;;;;;;23.52;15.52;;;;;;;;;;5017329;28;20186;-69
2021/07/02 08:41:11;;;;;;;24.27;17.08;;;;;;;;;;5020773;28;20202;-70
2021/07/02 08:43:37;;;;;;;22.75;16.50;;;;;;;;;;5015136;28;20185;-70
2021/07/02 08:46:03;;;;;;;24.13;16.75;;;;;;;;;;5019564;28;20774;-69
2021/07/02 08:48:30;;;;;;;31.30;17.05;;;;;;;;;;5014779;28;20252;-68
2021/07/02 08:50:55;;;;;;;26.95;16.55;;;;;;;;;;5021947;28;20276;-69
2021/07/02 08:53:21;;;;;;;22.42;14.77;;;;;;;;;;5008847;28;20288;-70
2021/07/02 08:55:47;;;;;;;23.58;15.13;;;;;;;;;;5020067;28;20249;-69
2021/07/02 08:58:14;;;;;;;18.67;13.98;;;;;;;;;;5007903;28;20202;-69
2021/07/02 09:00:43;;;;;;;18.17;13.00;;;;;;;;;;5020340;28;20666;-69
2021/07/02 09:03:32;;;;;;;20.13;12.82;;;;;;;;;;5017347;28;20232;-69
2021/07/02 09:06:11;;;;;;;19.23;12.60;;;;;;;;;;5018858;28;20634;-69
2021/07/02 09:08:36;;;;;;;18.40;11.73;;;;;;;;;;5009850;28;20661;-70
2021/07/02 09:11:23;;;;;;;16.92;11.18;;;;;;;;;;5015250;28;22299;-69
2021/07/02 09:13:48;;;;;;;17.05;11.65;;;;;;;;;;4995101;28;20202;-69
2021/07/02 09:16:28;;;;;;;22.35;11.65;;;;;;;;;;5016094;28;20196;-68
2021/07/02 09:18:54;;;;;;;14.90;10.52;;;;;;;;;;5018382;28;20210;-69
2021/07/02 09:21:28;;;;;;;19.10;11.23;;;;;;;;;;5012912;28;20523;-69
2021/07/02 09:23:57;;;;;;;16.50;11.07;;;;;;;;;;5020503;28;20324;-69
2021/07/02 09:26:37;;;;;;;13.82;11.00;;;;;;;;;;5009949;28;20223;-69
2021/07/02 09:29:15;;;;;;;18.48;11.80;;;;;;;;;;5020098;28;20189;-69
2021/07/02 09:31:41;;;;;;;17.13;11.52;;;;;;;;;;5014782;28;20239;-69
2021/07/02 09:34:07;;;;;;;19.38;11.68;;;;;;;;;;5025215;28;20198;-70
2021/07/02 09:36:32;;;;;;;16.60;11.55;;;;;;;;;;5017011;28;20186;-67
2021/07/02 09:38:58;;;;;;;18.25;12.05;;;;;;;;;;5025250;28;21298;-69
2021/07/02 09:41:33;;;;;;;16.13;11.63;;;;;;;;;;5016284;28;20201;-70
2021/07/02 09:44:11;;;;;;;14.70;10.35;;;;;;;;;;5023776;28;20284;-69
2021/07/02 09:46:36;;;;;;;14.18;10.45;;;;;;;;;;5029432;28;20225;-69
2021/07/02 09:49:02;;;;;;;14.07;10.52;;;;;;;;;;5045833;28;20197;-69
2021/07/02 09:51:28;;;;;;;14.65;10.60;;;;;;;;;;5032656;28;20209;-69
2021/07/02 09:54:07;;;;;;;13.82;11.15;;;;;;;;;;5043742;28;20182;-69
2021/07/02 09:56:33;;;;;;;17.80;11.18;;;;;;;;;;5029972;28;20277;-68
2021/07/02 09:58:59;;;;;;;14.80;11.18;;;;;;;;;;5044440;28;20285;-69
2021/07/02 10:01:27;;;;;;;16.77;12.07;;;;;;;;;;5033013;28;20490;-70
2021/07/02 10:03:52;;;;;;;16.90;11.45;;;;;;;;;;5041172;28;20241;-69
2021/07/02 10:06:28;;;;;;;17.60;12.68;;;;;;;;;;5047257;28;20205;-68
2021/07/02 10:08:55;;;;;;;15.38;11.63;;;;;;;;;;5033818;28;20204;-69
2021/07/02 10:11:20;;;;;;;13.48;10.82;;;;;;;;;;5046757;28;20802;-69
2021/07/02 10:13:51;;;;;;;17.48;11.77;;;;;;;;;;5030205;28;20186;-68
2021/07/02 10:16:17;;;;;;;16.20;11.82;;;;;;;;;;5044951;28;20774;-69
2021/07/02 10:18:49;;;;;;;14.07;11.73;;;;;;;;;;5033787;28;20254;-69
2021/07/02 10:21:16;;;;;;;16.98;11.65;;;;;;;;;;5025934;28;20622;-69
2021/07/02 10:23:45;;;;;;;13.52;10.10;;;;;;;;;;5035413;28;20201;-68
2021/07/02 10:26:13;;;;;;;21.60;12.23;;;;;;;;;;5043504;28;20232;-70
2021/07/02 10:28:40;;;;;;;14.18;11.07;;;;;;;;;;5035563;28;20181;-69
2021/07/02 10:31:07;;;;;;;15.50;11.77;;;;;;;;;;5045457;28;20200;-69
2021/07/02 10:33:34;;;;;;;18.95;11.98;;;;;;;;;;5034382;28;20652;-67
2021/07/02 10:36:04;;;;;;;17.05;11.43;;;;;;;;;;5044096;28;20235;-70
2021/07/02 10:38:42;;;;;;;17.40;12.05;;;;;;;;;;5031263;28;20196;-69
2021/07/02 10:41:14;;;;;;;16.42;12.02;;;;;;;;;;5044777;28;20231;-70
2021/07/02 10:44:06;;;;;;;19.25;12.18;;;;;;;;;;5031046;28;20293;-69
2021/07/02 10:46:59;;;;;;;19.33;12.52;;;;;;;;;;5032701;28;20240;-68
2021/07/02 10:49:38;;;;;;;21.27;12.40;;;;;;;;;;5011467;28;20190;-69
2021/07/02 10:52:22;;;;;;;18.65;11.73;;;;;;;;;;5024390;28;20256;-69
2021/07/02 10:54:48;;;;;;;17.88;11.18;;;;;;;;;;5012204;28;20667;-68
2021/07/02 10:57:19;;;;;;;15.65;11.15;;;;;;;;;;5020753;28;20190;-69
2021/07/02 10:59:50;;;;;;;14.98;10.50;;;;;;;;;;5015865;28;20194;-69
2021/07/02 11:02:20;;;;;;;13.85;8.77;;;;;;;;;;5020113;28;20609;-69
2021/07/02 11:04:49;;;;;;;14.70;9.88;;;;;;;;;;5014397;28;20182;-68
2021/07/02 11:07:27;;;;;;;14.95;10.77;;;;;;;;;;5016730;28;20684;-69
2021/07/02 11:09:54;;;;;;;13.02;10.23;;;;;;;;;;5013696;28;20633;-69
2021/07/02 11:12:25;;;;;;;14.43;9.68;;;;;;;;;;5024090;28;20190;-68
2021/07/02 11:14:51;;;;;;;16.88;11.07;;;;;;;;;;5002460;28;20267;-68
2021/07/02 11:17:24;;;;;;;16.13;11.23;;;;;;;;;;5013388;28;20261;-69
2021/07/02 11:20:08;;;;;;;14.65;10.98;;;;;;;;;;5005589;28;20684;-69
2021/07/02 11:22:52;;;;;;;13.48;9.38;;;;;;;;;;5015249;28;20711;-68
2021/07/02 11:25:30;;;;;;;18.48;11.13;;;;;;;;;;5017993;28;20248;-68
2021/07/02 11:27:59;;;;;;;16.95;11.55;;;;;;;;;;5019741;28;20267;-69
2021/07/02 11:30:35;;;;;;;19.15;11.95;;;;;;;;;;5019150;28;20186;-69
2021/07/02 11:33:10;;;;;;;13.63;10.27;;;;;;;;;;5011761;28;20593;-69
2021/07/02 11:35:48;;;;;;;17.30;10.32;;;;;;;;;;5020095;28;20967;-69
2021/07/02 11:38:23;;;;;;;13.18;10.20;;;;;;;;;;5007332;28;20190;-69
2021/07/02 11:40:55;;;;;;;14.10;10.68;;;;;;;;;;5020872;28;20197;-69
2021/07/02 11:43:22;;;;;;;15.98;11.77;;;;;;;;;;5009718;28;20556;-68
2021/07/02 11:45:56;;;;;;;15.98;10.48;;;;;;;;;;5020400;28;20309;-69
2021/07/02 11:48:21;;;;;;;16.15;10.77;;;;;;;;;;5012099;28;20231;-69
2021/07/02 11:51:08;;;;;;;17.02;10.45;;;;;;;;;;5016199;28;20733;-69
2021/07/02 11:53:36;;;;;;;14.93;10.52;;;;;;;;;;5009734;28;20193;-68
2021/07/02 11:56:05;;;;;;;16.05;10.57;;;;;;;;;;5021242;28;20178;-69
2021/07/02 11:58:58;;;;;;;16.02;11.10;;;;;;;;;;5011699;28;20213;-69
2021/07/02 12:01:40;;;;;;;17.13;11.85;;;;;;;;;;4319289;28;10000833;-69
2021/07/02 12:04:20;;;;;;;20.25;11.75;;;;;;;;;;5004992;28;20281;-69
2021/07/02 12:06:48;;;;;;;15.55;11.30;;;;;;;;;;5019866;28;20247;-69
2021/07/02 12:09:15;;;;;;;15.77;11.05;;;;;;;;;;5007053;28;20198;-70
2021/07/02 12:11:56;;;;;;;15.82;11.75;;;;;;;;;;5015866;28;20186;-69
2021/07/02 12:14:22;;;;;;;18.08;11.43;;;;;;;;;;5007474;28;20217;-69
2021/07/02 12:16:48;;;;;;;15.75;11.85;;;;;;;;;;5004460;28;20269;-69
2021/07/02 12:19:16;;;;;;;15.90;11.43;;;;;;;;;;5001879;28;20186;-70
2021/07/02 12:21:51;;;;;;;22.20;12.32;;;;;;;;;;5019368;28;20216;-69
2021/07/02 12:24:20;;;;;;;18.25;12.10;;;;;;;;;;4992405;28;20193;-69
2021/07/02 12:26:51;;;;;;;17.20;12.80;;;;;;;;;;5011054;28;20202;-69
2021/07/02 12:29:16;;;;;;;16.38;12.10;;;;;;;;;;5008239;28;20708;-69
2021/07/02 12:31:45;;;;;;;19.35;12.88;;;;;;;;;;5019124;28;20225;-69
2021/07/02 12:34:13;;;;;;;17.33;12.38;;;;;;;;;;5011458;28;20186;-69
2021/07/02 12:36:50;;;;;;;20.40;13.43;;;;;;;;;;5007971;28;20193;-68
2021/07/02 12:39:15;;;;;;;16.55;12.52;;;;;;;;;;5008203;28;20184;-67
2021/07/02 12:41:47;;;;;;;17.10;11.82;;;;;;;;;;5003299;28;20178;-69
2021/07/02 12:44:18;;;;;;;17.77;12.00;;;;;;;;;;5011084;28;20710;-68
2021/07/02 12:46:44;;;;;;;17.52;12.60;;;;;;;;;;5007055;28;20233;-68
2021/07/02 12:49:27;;;;;;;19.23;13.75;;;;;;;;;;5017251;28;20546;-69
2021/07/02 12:54:57;;;;;;;16.65;12.15;;;;;;;;;;5013479;28;20594;-67
2021/07/02 12:57:25;;;;;;;19.33;12.10;;;;;;;;;;5009455;28;20346;-68
2021/07/02 12:59:56;;;;;;;19.65;13.27;;;;;;;;;;5016105;28;20206;-68
2021/07/02 13:02:32;;;;;;;19.67;12.57;;;;;;;;;;5010059;28;20650;-68
2021/07/02 13:05:03;;;;;;;19.27;12.80;;;;;;;;;;5018570;28;20216;-69
2021/07/02 13:07:58;;;;;;;19.15;13.07;;;;;;;;;;5011307;28;20661;-69
2021/07/02 13:10:27;;;;;;;17.63;12.70;;;;;;;;;;5010824;28;20321;-69
2021/07/02 13:13:07;;;;;;;19.27;12.77;;;;;;;;;;5009664;28;20213;-69
2021/07/02 13:15:35;;;;;;;18.20;12.63;;;;;;;;;;5021116;28;20225;-69
2021/07/02 13:18:00;;;;;;;16.90;11.70;;;;;;;;;;5010547;28;20244;-69
2021/07/02 13:20:49;;;;;;;19.83;12.68;;;;;;;;;;5018277;28;20203;-69
2021/07/02 13:23:19;;;;;;;16.73;12.48;;;;;;;;;;5009425;28;20191;-69
2021/07/02 13:26:00;;;;;;;17.58;13.10;;;;;;;;;;5018378;28;20211;-68
2021/07/02 13:28:25;;;;;;;17.17;12.77;;;;;;;;;;5009088;28;20205;-69
2021/07/02 13:30:51;;;;;;;17.73;12.35;;;;;;;;;;5020683;28;20204;-69
2021/07/02 13:33:16;;;;;;;19.05;12.30;;;;;;;;;;5009154;28;20659;-69
2021/07/02 13:35:41;;;;;;;19.50;12.82;;;;;;;;;;5019079;28;20654;-69
2021/07/02 13:38:15;;;;;;;17.30;11.82;;;;;;;;;;5012349;28;20186;-69
2021/07/02 13:40:48;;;;;;;18.15;12.52;;;;;;;;;;5019659;28;20719;-68
2021/07/02 13:43:22;;;;;;;19.85;13.13;;;;;;;;;;5012732;28;20218;-69
2021/07/02 13:46:04;;;;;;;17.08;12.32;;;;;;;;;;5020772;28;20253;-69
2021/07/02 13:48:32;;;;;;;18.15;12.50;;;;;;;;;;5013344;28;20202;-69
2021/07/02 13:50:58;;;;;;;19.10;12.70;;;;;;;;;;5018697;28;20215;-70
2021/07/02 13:53:25;;;;;;;23.08;12.75;;;;;;;;;;5002735;28;21482;-69
2021/07/02 13:55:52;;;;;;;20.00;12.88;;;;;;;;;;5021946;28;20232;-69
2021/07/02 13:58:17;;;;;;;19.77;12.93;;;;;;;;;;5015397;28;20187;-69
2021/07/02 14:00:45;;;;;;;19.65;12.23;;;;;;;;;;5010326;28;20210;-69
2021/07/02 14:03:11;;;;;;;20.58;12.90;;;;;;;;;;5013683;28;20989;-69
2021/07/02 14:05:37;;;;;;;19.48;12.95;;;;;;;;;;5002840;28;20183;-69
2021/07/02 14:08:04;;;;;;;20.42;13.35;;;;;;;;;;5013810;28;20210;-69
2021/07/02 14:10:30;;;;;;;18.10;11.77;;;;;;;;;;5008504;28;20286;-69
2021/07/02 14:12:57;;;;;;;21.20;13.65;;;;;;;;;;5020182;28;20811;-68
2021/07/02 14:15:22;;;;;;;19.00;12.70;;;;;;;;;;5008286;28;20209;-68
2021/07/02 14:17:48;;;;;;;19.30;12.00;;;;;;;;;;5018907;28;20221;-68
2021/07/02 14:20:14;;;;;;;18.15;11.65;;;;;;;;;;5015157;28;20202;-69
2021/07/02 14:22:43;;;;;;;16.58;11.48;;;;;;;;;;5019022;28;20196;-69
2021/07/02 14:25:11;;;;;;;15.52;11.18;;;;;;;;;;5005996;28;20222;-69